Time;durP1;ratioP1;P1;durP2;ratioP2;P2;SDS_P1;SDS_P2;PMS_P1;PMS_P2;Temp;Humidity;BMP_temperature;BMP_pressure;BME280_temperature;BME280_humidity;BME280_pressure;Samples;Min_cycle;Max_cycle;Signal;HPM_P1;HPM_P2
2022/06/22 00:01:10;;;;;;;0.50;0.50;;;16.90;64.80;;;;;;5011800;28;20052;-76
2022/06/22 00:03:36;;;;;;;0.55;0.50;;;16.90;65.00;;;;;;4994180;28;20201;-77
2022/06/22 00:06:03;;;;;;;0.82;0.57;;;16.80;65.00;;;;;;5011981;28;20128;-76
2022/06/22 00:08:34;;;;;;;0.50;0.50;;;16.80;65.10;;;;;;4994510;28;20132;-77
2022/06/22 00:11:10;;;;;;;0.77;0.77;;;16.80;65.20;;;;;;4978007;28;20123;-77
2022/06/22 00:13:37;;;;;;;0.50;0.50;;;16.80;65.50;;;;;;4993829;28;20401;-77
2022/06/22 00:16:06;;;;;;;0.70;0.70;;;16.70;65.50;;;;;;5011689;28;20044;-77
2022/06/22 00:18:39;;;;;;;0.60;0.60;;;16.60;65.60;;;;;;5011674;28;20041;-77
2022/06/22 00:21:18;;;;;;;0.55;0.55;;;16.60;65.70;;;;;;5011919;28;20042;-76
2022/06/22 00:23:46;;;;;;;0.40;0.40;;;16.50;65.80;;;;;;5012026;28;20108;-76
2022/06/22 00:26:31;;;;;;;0.73;0.60;;;16.60;65.90;;;;;;5011678;28;20116;-76
2022/06/22 00:29:17;;;;;;;0.60;0.40;;;16.50;66.10;;;;;;5012101;28;20034;-77
2022/06/22 00:31:59;;;;;;;0.65;0.60;;;16.40;66.20;;;;;;4993080;28;20034;-77
2022/06/22 00:34:27;;;;;;;;;;;16.40;66.40;;;;;;5012380;28;20046;-77
2022/06/22 00:37:04;;;;;;;0.50;0.40;;;16.40;66.30;;;;;;5011623;28;19918;-77
2022/06/22 00:39:40;;;;;;;0.73;0.60;;;16.30;66.40;;;;;;5012166;28;20048;-76
2022/06/22 00:42:25;;;;;;;0.77;0.65;;;16.30;66.50;;;;;;5010655;28;20046;-76
2022/06/22 00:45:06;;;;;;;0.85;0.55;;;16.20;66.50;;;;;;5011367;28;20046;-76
2022/06/22 00:47:36;;;;;;;0.52;0.50;;;16.30;66.60;;;;;;5011597;28;20470;-76
2022/06/22 00:50:13;;;;;;;0.50;0.50;;;16.20;66.50;;;;;;5009774;28;20068;-77
2022/06/22 00:52:45;;;;;;;0.43;0.43;;;16.20;66.70;;;;;;4994792;28;20445;-77
2022/06/22 00:55:30;;;;;;;0.68;0.52;;;16.20;66.80;;;;;;4993600;28;20046;-77
2022/06/22 00:58:21;;;;;;;0.43;0.43;;;16.10;66.90;;;;;;4995726;28;20494;-76
2022/06/22 01:00:58;;;;;;;0.40;0.40;;;16.10;67.00;;;;;;5014787;28;20144;-76
2022/06/22 01:03:34;;;;;;;0.65;0.52;;;16.00;67.00;;;;;;5014739;28;20095;-76
2022/06/22 01:06:07;;;;;;;0.52;0.52;;;15.90;67.10;;;;;;5014505;28;20501;-77
2022/06/22 01:08:51;;;;;;;0.60;0.60;;;16.00;67.40;;;;;;4995814;28;20034;-76
2022/06/22 01:14:18;;;;;;;0.60;0.60;;;15.80;67.50;;;;;;5014694;28;20057;-77
2022/06/22 01:16:46;;;;;;;0.50;0.50;;;15.90;67.60;;;;;;5014290;28;20486;-77
2022/06/22 01:19:26;;;;;;;0.60;0.60;;;15.80;67.70;;;;;;4996975;28;20042;-77
2022/06/22 01:22:23;;;;;;;1.15;0.70;;;15.80;67.70;;;;;;5014401;28;20034;-76
2022/06/22 01:25:06;;;;;;;0.68;0.60;;;15.80;67.80;;;;;;5000347;28;20504;-77
2022/06/22 01:27:35;;;;;;;0.68;0.50;;;15.80;67.80;;;;;;4980200;28;20030;-77
2022/06/22 01:30:17;;;;;;;0.57;0.57;;;15.80;67.90;;;;;;5014741;28;20478;-76
2022/06/22 01:32:43;;;;;;;1.10;0.70;;;15.70;68.00;;;;;;5014093;28;20173;-76
2022/06/22 01:35:22;;;;;;;1.33;0.80;;;15.70;68.10;;;;;;5014550;28;20133;-76
2022/06/22 01:37:48;;;;;;;0.70;0.70;;;15.70;68.30;;;;;;4997780;28;20084;-77
2022/06/22 01:40:19;;;;;;;1.95;0.70;;;15.60;68.20;;;;;;5014446;28;20094;-76
2022/06/22 01:43:03;;;;;;;0.52;0.52;;;15.60;68.30;;;;;;5014296;28;20061;-77
2022/06/22 01:45:39;;;;;;;0.88;0.47;;;15.60;68.40;;;;;;5014130;28;20058;-77
2022/06/22 01:48:26;;;;;;;0.50;0.50;;;15.60;68.40;;;;;;4960871;28;20039;-77
2022/06/22 01:51:03;;;;;;;0.73;0.55;;;15.60;68.50;;;;;;5014053;28;20045;-77
2022/06/22 01:53:37;;;;;;;0.63;0.50;;;15.60;68.60;;;;;;5014141;28;20044;-77
2022/06/22 01:56:27;;;;;;;0.65;0.65;;;15.60;68.60;;;;;;4995965;28;20046;-77
2022/06/22 01:59:18;;;;;;;0.70;0.70;;;15.50;68.70;;;;;;5014049;28;20034;-77
2022/06/22 02:01:56;;;;;;;0.50;0.50;;;15.50;68.70;;;;;;4997912;28;20806;-77
2022/06/22 02:04:33;;;;;;;0.88;0.70;;;15.50;68.80;;;;;;5010509;28;20125;-77
2022/06/22 02:10:31;;;;;;;0.65;0.60;;;15.50;68.90;;;;;;5011708;28;20126;-77
2022/06/22 02:13:15;;;;;;;0.77;0.70;;;15.40;68.90;;;;;;4994962;28;20034;-77
2022/06/22 02:15:50;;;;;;;0.47;0.47;;;15.40;68.90;;;;;;5013687;28;20431;-77
2022/06/22 02:18:31;;;;;;;1.00;0.52;;;15.40;69.00;;;;;;4995936;28;20042;-77
2022/06/22 02:21:00;;;;;;;0.80;0.80;;;15.40;69.00;;;;;;4994636;28;20046;-77
2022/06/22 02:23:33;;;;;;;0.82;0.70;;;15.50;69.20;;;;;;4994493;28;20049;-77
2022/06/22 02:26:22;;;;;;;0.98;0.63;;;15.40;69.20;;;;;;5013364;28;20046;-77
2022/06/22 02:28:51;;;;;;;0.63;0.60;;;15.30;69.30;;;;;;5013167;28;20046;-77
2022/06/22 02:31:20;;;;;;;0.75;0.60;;;15.30;69.40;;;;;;4995780;28;20046;-76
2022/06/22 02:33:50;;;;;;;0.70;0.70;;;15.30;69.40;;;;;;5013528;28;20512;-77
2022/06/22 02:36:17;;;;;;;0.60;0.57;;;15.30;69.60;;;;;;4995436;28;20033;-77
2022/06/22 02:38:45;;;;;;;0.50;0.50;;;15.30;69.60;;;;;;5013732;28;20066;-77
2022/06/22 02:46:40;;;;;;;1.25;0.55;;;15.20;69.80;;;;;;5013130;28;20050;-77
2022/06/22 02:49:13;;;;;;;0.85;0.50;;;15.20;69.90;;;;;;5013346;28;20490;-77
2022/06/22 02:51:46;;;;;;;1.15;0.60;;;15.20;70.00;;;;;;4995467;28;20500;-77
2022/06/22 02:54:24;;;;;;;1.70;0.88;;;15.20;70.10;;;;;;5013149;28;20164;-77
2022/06/22 02:57:03;;;;;;;0.70;0.70;;;15.10;70.10;;;;;;4995547;28;20085;-77
2022/06/22 02:59:30;;;;;;;0.95;0.63;;;15.10;70.20;;;;;;5013397;28;20045;-77
2022/06/22 03:01:57;;;;;;;1.02;0.90;;;15.10;70.20;;;;;;5013427;28;20026;-77
2022/06/22 03:04:23;;;;;;;0.90;0.70;;;15.10;70.20;;;;;;5012855;28;20522;-77
2022/06/22 03:06:52;;;;;;;0.52;0.52;;;15.10;70.30;;;;;;5013014;28;20049;-77
2022/06/22 03:09:18;;;;;;;1.25;0.77;;;15.00;70.30;;;;;;5013405;28;20037;-77
2022/06/22 03:11:48;;;;;;;0.70;0.68;;;15.00;70.40;;;;;;4993869;28;20482;-76
2022/06/22 03:14:30;;;;;;;0.77;0.65;;;15.00;70.50;;;;;;5013406;28;20129;-77
2022/06/22 03:17:04;;;;;;;0.80;0.70;;;15.00;70.50;;;;;;4994968;28;20132;-77
2022/06/22 03:19:41;;;;;;;0.70;0.70;;;15.00;70.60;;;;;;5012291;28;20046;-77
2022/06/22 03:22:13;;;;;;;0.70;0.70;;;15.00;70.60;;;;;;4996114;28;20425;-77
2022/06/22 03:24:51;;;;;;;1.15;0.80;;;15.00;70.70;;;;;;4994859;28;20054;-77
2022/06/22 03:27:23;;;;;;;0.95;0.82;;;14.90;70.70;;;;;;5013077;28;20433;-77
2022/06/22 03:29:56;;;;;;;1.10;0.60;;;14.90;70.70;;;;;;4993952;28;20097;-77
2022/06/22 03:32:30;;;;;;;0.60;0.60;;;14.90;70.80;;;;;;5012927;28;20038;-77
2022/06/22 03:35:06;;;;;;;0.73;0.60;;;14.80;70.80;;;;;;4995632;28;20038;-77
2022/06/22 03:37:46;;;;;;;0.60;0.60;;;14.80;70.80;;;;;;4977845;28;20100;-77
2022/06/22 03:40:19;;;;;;;1.88;0.90;;;14.90;71.00;;;;;;4995093;28;20512;-78
2022/06/22 03:42:51;;;;;;;0.73;0.73;;;14.90;71.00;;;;;;4979377;28;20394;-77
2022/06/22 03:45:24;;;;;;;1.00;0.60;;;14.80;71.00;;;;;;5012549;28;20092;-77
2022/06/22 03:48:06;;;;;;;1.00;0.80;;;14.80;71.00;;;;;;4994691;28;20038;-77
2022/06/22 03:50:50;;;;;;;0.63;0.63;;;14.80;71.00;;;;;;5012201;28;20152;-77
2022/06/22 03:53:23;;;;;;;0.65;0.65;;;14.80;71.00;;;;;;5012506;28;20038;-77
2022/06/22 03:55:54;;;;;;;0.40;0.40;;;14.80;71.00;;;;;;4993323;28;20041;-76
2022/06/22 03:58:21;;;;;;;0.50;0.50;;;14.80;71.00;;;;;;4962873;28;20042;-77
2022/06/22 04:00:47;;;;;;;0.60;0.60;;;14.80;71.00;;;;;;4978314;28;20034;-77
2022/06/22 04:03:16;;;;;;;0.43;0.43;;;14.80;71.00;;;;;;4994589;28;20050;-77
2022/06/22 04:05:48;;;;;;;0.55;0.50;;;14.90;71.10;;;;;;4994517;28;20193;-77
2022/06/22 04:08:23;;;;;;;0.65;0.52;;;14.80;71.00;;;;;;4978292;28;20088;-77
2022/06/22 04:10:58;;;;;;;0.75;0.55;;;14.80;71.00;;;;;;4995272;28;20095;-77
2022/06/22 04:13:34;;;;;;;0.50;0.50;;;14.80;71.00;;;;;;5012036;28;20038;-77
2022/06/22 04:16:20;;;;;;;0.60;0.60;;;14.80;71.10;;;;;;5012422;28;20110;-77
2022/06/22 04:18:55;;;;;;;0.43;0.43;;;14.90;71.20;;;;;;4994456;28;20490;-77
2022/06/22 04:21:30;;;;;;;0.50;0.50;;;14.80;71.10;;;;;;4994577;28;20073;-77
2022/06/22 04:24:01;;;;;;;0.50;0.50;;;14.80;71.10;;;;;;5012099;28;20042;-77
2022/06/22 04:26:40;;;;;;;0.82;0.65;;;14.90;71.20;;;;;;5011924;28;20081;-77
2022/06/22 04:29:17;;;;;;;0.57;0.40;;;14.80;71.10;;;;;;4994594;28;20094;-77
2022/06/22 04:31:54;;;;;;;0.75;0.63;;;14.80;71.10;;;;;;5013845;28;20543;-77
2022/06/22 04:34:33;;;;;;;0.70;0.60;;;14.80;71.10;;;;;;4982358;28;20104;-77
2022/06/22 04:37:03;;;;;;;0.77;0.77;;;14.90;71.10;;;;;;4996990;28;20423;-77
2022/06/22 04:39:35;;;;;;;0.70;0.70;;;15.10;71.20;;;;;;4997476;28;20034;-77
2022/06/22 04:42:02;;;;;;;1.20;0.80;;;15.00;71.10;;;;;;5015497;28;20048;-77
2022/06/22 04:44:33;;;;;;;0.88;0.75;;;15.00;71.00;;;;;;5015540;28;20038;-77
2022/06/22 04:47:06;;;;;;;;;;;15.10;71.00;;;;;;4998018;28;20030;-77
2022/06/22 04:49:39;;;;;;;0.70;0.63;;;15.00;70.90;;;;;;5015170;28;19913;-77
2022/06/22 04:52:27;;;;;;;0.60;0.60;;;15.10;70.70;;;;;;5015606;28;20042;-77
2022/06/22 04:54:56;;;;;;;0.80;0.70;;;15.20;70.70;;;;;;5015138;28;20049;-77
2022/06/22 04:57:28;;;;;;;0.75;0.60;;;15.20;70.60;;;;;;4997494;28;20041;-77
2022/06/22 04:59:55;;;;;;;0.88;0.88;;;15.20;70.50;;;;;;5014965;28;20192;-77
2022/06/22 05:02:26;;;;;;;0.52;0.52;;;15.30;70.50;;;;;;5015611;28;20041;-77
2022/06/22 05:05:02;;;;;;;1.15;0.80;;;15.30;70.40;;;;;;5014900;28;20133;-76
2022/06/22 05:07:52;;;;;;;0.57;0.52;;;15.40;70.30;;;;;;4997282;28;20042;-77
2022/06/22 05:10:33;;;;;;;0.77;0.77;;;15.50;70.20;;;;;;5014473;28;20046;-77
2022/06/22 05:13:03;;;;;;;0.63;0.63;;;15.50;70.10;;;;;;5015456;28;20042;-76
2022/06/22 05:15:37;;;;;;;1.58;0.90;;;15.70;70.00;;;;;;4997074;28;20072;-77
2022/06/22 05:18:09;;;;;;;1.25;0.65;;;15.80;69.80;;;;;;5014994;28;20041;-77
2022/06/22 05:21:00;;;;;;;0.70;0.70;;;15.90;69.50;;;;;;5014741;28;20103;-77
2022/06/22 05:23:27;;;;;;;;;;;16.00;69.40;;;;;;4983505;28;20089;-75
2022/06/22 05:25:56;;;;;;;0.88;0.50;;;16.10;69.10;;;;;;5014987;28;19913;-75
2022/06/22 05:28:39;;;;;;;0.70;0.70;;;16.30;68.90;;;;;;5015001;28;20046;-76
2022/06/22 05:31:10;;;;;;;0.80;0.75;;;16.40;68.80;;;;;;4996172;28;20065;-75
2022/06/22 05:33:39;;;;;;;0.70;0.60;;;16.50;68.60;;;;;;4997696;28;20501;-75
2022/06/22 05:36:10;;;;;;;0.73;0.60;;;16.60;68.40;;;;;;5014328;28;20144;-75
2022/06/22 05:38:41;;;;;;;0.63;0.60;;;16.80;68.30;;;;;;4997122;28;20057;-75
2022/06/22 05:41:07;;;;;;;;;;;16.90;68.20;;;;;;5014490;28;20637;-75
2022/06/22 05:43:36;;;;;;;0.40;0.40;;;17.00;68.00;;;;;;5013321;28;19913;-74
2022/06/22 05:46:05;;;;;;;1.33;0.68;;;17.10;67.90;;;;;;5013895;28;20050;-74
2022/06/22 05:48:34;;;;;;;0.68;0.68;;;17.20;67.90;;;;;;5013851;28;20041;-74
2022/06/22 05:51:06;;;;;;;1.10;0.80;;;17.30;67.80;;;;;;4996420;28;20037;-74
2022/06/22 05:53:52;;;;;;;0.52;0.52;;;17.30;67.70;;;;;;4995758;28;20038;-74
2022/06/22 05:56:31;;;;;;;0.73;0.52;;;17.50;67.80;;;;;;5014070;28;20141;-74
2022/06/22 05:59:29;;;;;;;1.27;0.60;;;17.50;67.70;;;;;;5014002;28;20049;-74
2022/06/22 06:02:03;;;;;;;0.80;0.50;;;17.60;67.60;;;;;;4985567;28;20054;-75
2022/06/22 06:04:53;;;;;;;0.60;0.60;;;17.60;67.60;;;;;;5014573;28;20034;-75
2022/06/22 06:07:46;;;;;;;0.60;0.60;;;17.60;67.60;;;;;;4999302;28;20042;-74
2022/06/22 06:10:24;;;;;;;1.52;0.70;;;17.70;68.20;;;;;;4997830;28;20605;-75
2022/06/22 06:12:59;;;;;;;0.68;0.68;;;17.80;67.50;;;;;;4995411;28;20069;-74
2022/06/22 06:15:25;;;;;;;0.63;0.63;;;17.90;67.50;;;;;;5013638;28;20045;-74
2022/06/22 06:17:57;;;;;;;0.55;0.50;;;17.90;67.40;;;;;;5014283;28;20106;-74
2022/06/22 06:20:31;;;;;;;0.80;0.50;;;18.00;67.30;;;;;;5013394;28;20093;-74
2022/06/22 06:23:06;;;;;;;0.60;0.60;;;18.10;67.30;;;;;;5013568;28;20101;-74
2022/06/22 06:28:34;;;;;;;0.60;0.60;;;18.30;67.10;;;;;;5013675;28;20120;-73
2022/06/22 06:31:06;;;;;;;0.60;0.60;;;18.30;66.80;;;;;;5013612;28;20042;-74
2022/06/22 06:33:35;;;;;;;0.80;0.60;;;18.40;66.70;;;;;;5013893;28;20062;-74
2022/06/22 06:36:15;;;;;;;1.15;0.80;;;18.50;66.50;;;;;;4994406;28;20038;-74
2022/06/22 06:38:45;;;;;;;0.70;0.70;;;18.60;66.30;;;;;;5013336;28;20489;-73
2022/06/22 06:41:31;;;;;;;1.30;0.80;;;18.70;66.10;;;;;;5013683;28;20061;-74
2022/06/22 06:44:09;;;;;;;0.80;0.60;;;18.80;66.00;;;;;;5013244;28;20107;-73
2022/06/22 06:46:45;;;;;;;0.88;0.65;;;18.90;65.80;;;;;;4992352;28;20072;-75
2022/06/22 06:49:22;;;;;;;0.98;0.80;;;19.00;65.60;;;;;;4957106;28;20491;-74
2022/06/22 06:51:58;;;;;;;0.47;0.47;;;19.10;65.50;;;;;;4972551;28;20047;-73
2022/06/22 06:54:42;;;;;;;0.80;0.63;;;19.30;65.30;;;;;;4971047;28;20521;-75
2022/06/22 06:57:13;;;;;;;0.63;0.55;;;19.50;65.00;;;;;;4971975;28;20042;-74
2022/06/22 06:59:41;;;;;;;0.52;0.52;;;19.60;64.80;;;;;;4961110;28;20057;-75
2022/06/22 07:02:15;;;;;;;1.52;0.70;;;19.70;64.60;;;;;;4971818;28;20046;-74
2022/06/22 07:04:41;;;;;;;0.65;0.60;;;19.90;64.40;;;;;;4955060;28;20130;-74
2022/06/22 07:07:31;;;;;;;0.68;0.65;;;20.10;64.30;;;;;;4955692;28;20227;-74
2022/06/22 07:10:07;;;;;;;0.70;0.70;;;20.30;63.90;;;;;;4972482;28;20396;-75
2022/06/22 07:12:53;;;;;;;1.65;0.50;;;20.50;63.70;;;;;;4972010;28;20147;-74
2022/06/22 07:15:23;;;;;;;0.60;0.50;;;20.70;63.50;;;;;;4955606;28;20062;-74
2022/06/22 07:17:53;;;;;;;0.40;0.40;;;20.90;63.30;;;;;;4955541;28;20562;-74
2022/06/22 07:20:28;;;;;;;0.43;0.40;;;21.00;63.10;;;;;;4955828;28;20395;-76
2022/06/22 07:23:01;;;;;;;1.20;0.85;;;21.20;63.00;;;;;;4978443;28;20054;-76
2022/06/22 07:25:42;;;;;;;0.98;0.60;;;21.40;62.70;;;;;;4957274;28;20109;-76
2022/06/22 07:28:34;;;;;;;0.50;0.50;;;21.70;62.50;;;;;;5013215;28;20041;-74
2022/06/22 07:31:08;;;;;;;0.93;0.80;;;21.80;62.20;;;;;;5012566;28;20045;-75
2022/06/22 07:33:40;;;;;;;0.90;0.50;;;22.10;61.90;;;;;;4993394;28;20041;-73
2022/06/22 07:36:14;;;;;;;1.10;0.70;;;22.20;61.80;;;;;;5012843;28;20041;-76
2022/06/22 07:39:05;;;;;;;0.85;0.50;;;22.30;61.70;;;;;;5013368;28;20037;-75
2022/06/22 07:41:31;;;;;;;;;;;22.50;61.60;;;;;;5013024;28;20528;-75
2022/06/22 07:44:04;;;;;;;0.68;0.55;;;22.70;61.70;;;;;;5014098;28;19913;-75
2022/06/22 07:47:05;;;;;;;0.60;0.60;;;22.70;61.60;;;;;;5013157;28;20050;-75
2022/06/22 07:49:50;;;;;;;;;;;22.90;61.30;;;;;;5013302;28;20049;-76
2022/06/22 07:52:21;;;;;;;0.50;0.50;;;23.10;61.30;;;;;;5014534;28;19913;-75
2022/06/22 07:54:51;;;;;;;;;;;23.30;61.20;;;;;;5016127;28;20042;-75
2022/06/22 07:57:32;;;;;;;0.50;0.50;;;23.40;61.20;;;;;;5015230;28;19913;-76
2022/06/22 08:00:04;;;;;;;;;;;23.50;60.90;;;;;;5018900;28;20030;-75
2022/06/22 08:02:55;;;;;;;0.68;0.55;;;23.60;61.00;;;;;;5012893;28;19906;-76
2022/06/22 08:05:28;;;;;;;0.30;0.30;;;23.80;60.70;;;;;;4995199;28;20113;-76
2022/06/22 08:08:02;;;;;;;0.55;0.32;;;23.90;60.50;;;;;;4998822;28;20041;-75
2022/06/22 08:10:35;;;;;;;0.50;0.50;;;24.00;60.10;;;;;;5015557;28;20041;-75
2022/06/22 08:13:20;;;;;;;0.65;0.50;;;24.10;60.00;;;;;;5015230;28;20115;-75
2022/06/22 08:15:52;;;;;;;0.60;0.32;;;24.30;60.60;;;;;;5004502;28;20386;-76
2022/06/22 08:18:19;;;;;;;0.50;0.50;;;24.50;59.80;;;;;;5019354;28;20050;-76
2022/06/22 08:20:49;;;;;;;0.52;0.52;;;24.50;59.50;;;;;;5000738;28;20042;-76
2022/06/22 08:23:20;;;;;;;0.63;0.50;;;24.50;59.50;;;;;;5017654;28;20053;-76
2022/06/22 08:25:48;;;;;;;0.52;0.52;;;24.60;59.40;;;;;;4997911;28;20410;-75
2022/06/22 08:28:18;;;;;;;1.02;0.52;;;24.60;59.30;;;;;;5013497;28;20042;-76
2022/06/22 08:30:45;;;;;;;0.40;0.40;;;24.70;59.30;;;;;;5021027;28;20400;-76
2022/06/22 08:33:14;;;;;;;0.45;0.45;;;24.70;59.00;;;;;;5012368;28;20041;-74
2022/06/22 08:35:52;;;;;;;0.50;0.35;;;24.80;59.00;;;;;;5011960;28;20054;-73
2022/06/22 08:38:27;;;;;;;0.45;0.45;;;24.90;58.70;;;;;;4994348;28;20042;-74
2022/06/22 08:41:16;;;;;;;1.65;0.45;;;25.00;58.70;;;;;;4995292;28;20049;-73
2022/06/22 08:44:07;;;;;;;0.40;0.40;;;25.10;58.50;;;;;;4995910;28;20115;-73
2022/06/22 08:46:52;;;;;;;;;;;25.00;58.40;;;;;;5012158;28;20486;-74
2022/06/22 08:49:42;;;;;;;0.20;0.20;;;25.20;58.50;;;;;;5008828;28;20004;-73
2022/06/22 08:52:27;;;;;;;0.30;0.30;;;25.40;58.10;;;;;;5011712;28;20030;-73
2022/06/22 08:55:09;;;;;;;0.30;0.30;;;25.60;57.80;;;;;;4994032;28;20273;-74
2022/06/22 08:57:58;;;;;;;0.50;0.50;;;25.70;57.50;;;;;;5011619;28;20521;-74
2022/06/22 09:00:48;;;;;;;0.47;0.47;;;25.80;57.20;;;;;;4996418;28;20030;-73
2022/06/22 09:03:37;;;;;;;0.40;0.40;;;25.90;56.90;;;;;;4997661;28;20109;-74
2022/06/22 09:06:30;;;;;;;0.35;0.32;;;26.10;56.90;;;;;;5011241;28;20038;-74
2022/06/22 09:09:26;;;;;;;0.55;0.50;;;26.20;56.50;;;;;;4998935;28;20493;-74
2022/06/22 09:12:14;;;;;;;0.52;0.50;;;26.30;56.20;;;;;;5011716;28;20128;-73
2022/06/22 09:14:56;;;;;;;0.45;0.40;;;26.30;56.10;;;;;;5011365;28;20053;-73
2022/06/22 09:17:44;;;;;;;0.40;0.40;;;26.40;56.10;;;;;;5011706;28;20053;-73
2022/06/22 09:20:38;;;;;;;0.63;0.40;;;26.40;55.80;;;;;;5014701;28;20046;-73
2022/06/22 09:23:34;;;;;;;0.43;0.43;;;26.30;55.60;;;;;;4999341;28;20050;-73
2022/06/22 09:26:08;;;;;;;0.30;0.30;;;26.30;55.80;;;;;;4996661;28;20410;-73
2022/06/22 09:28:52;;;;;;;0.32;0.32;;;26.30;55.80;;;;;;5014214;28;20456;-73
2022/06/22 09:31:45;;;;;;;0.40;0.40;;;26.30;55.60;;;;;;5014763;28;20045;-73
2022/06/22 09:34:40;;;;;;;0.32;0.32;;;26.50;55.20;;;;;;5014227;28;20045;-73
2022/06/22 09:37:38;;;;;;;0.30;0.30;;;26.50;54.90;;;;;;4996937;28;20127;-73
2022/06/22 09:40:22;;;;;;;0.40;0.40;;;26.50;54.70;;;;;;5001435;28;20117;-73
2022/06/22 09:43:17;;;;;;;0.40;0.40;;;26.50;54.60;;;;;;5014297;28;20029;-73
2022/06/22 09:46:05;;;;;;;0.45;0.45;;;26.60;54.30;;;;;;4997216;28;20046;-74
2022/06/22 09:49:04;;;;;;;0.30;0.30;;;26.60;54.20;;;;;;5011917;28;20113;-73
2022/06/22 09:51:56;;;;;;;0.40;0.35;;;26.80;54.00;;;;;;5014220;28;20045;-73
2022/06/22 09:58:16;;;;;;;0.47;0.40;;;26.90;53.40;;;;;;5012639;28;20117;-74
2022/06/22 10:00:48;;;;;;;;;;;26.90;53.40;;;;;;5014330;28;20050;-74
2022/06/22 10:03:39;;;;;;;0.30;0.30;;;26.90;53.50;;;;;;4996454;28;19909;-74
2022/06/22 10:06:27;;;;;;;0.20;0.20;;;26.90;53.30;;;;;;4994251;28;20046;-74
2022/06/22 10:09:27;;;;;;;0.30;0.30;;;27.10;53.10;;;;;;4997141;28;20050;-73
2022/06/22 10:12:27;;;;;;;0.30;0.30;;;27.20;52.70;;;;;;5014349;28;20080;-74
2022/06/22 10:15:02;;;;;;;;;;;27.10;52.30;;;;;;5000214;28;20084;-74
2022/06/22 10:17:47;;;;;;;0.30;0.30;;;27.10;52.60;;;;;;5011728;28;19913;-74
2022/06/22 10:20:26;;;;;;;0.30;0.30;;;27.10;52.40;;;;;;5013683;28;20041;-74
2022/06/22 10:23:32;;;;;;;0.20;0.20;;;27.10;52.40;;;;;;5014038;28;20124;-74
2022/06/22 10:26:17;;;;;;;0.30;0.30;;;27.40;52.20;;;;;;4997551;28;20092;-75
2022/06/22 10:29:18;;;;;;;0.30;0.30;;;27.60;51.90;;;;;;5013414;28;20038;-75
2022/06/22 10:32:01;;;;;;;0.30;0.30;;;27.80;51.30;;;;;;4999150;28;20496;-75
2022/06/22 10:34:49;;;;;;;0.32;0.32;;;27.90;51.20;;;;;;5014296;28;20038;-75
2022/06/22 10:37:48;;;;;;;0.40;0.30;;;27.80;50.90;;;;;;4996456;28;20038;-75
2022/06/22 10:46:25;;;;;;;0.30;0.30;;;27.70;50.80;;;;;;4998022;28;20041;-75
2022/06/22 10:49:20;;;;;;;0.30;0.30;;;27.60;51.00;;;;;;5013437;28;20038;-76
2022/06/22 10:52:10;;;;;;;0.40;0.40;;;27.60;51.00;;;;;;5016033;28;20117;-76
2022/06/22 10:54:52;;;;;;;0.43;0.38;;;27.70;50.80;;;;;;5014793;28;20037;-75
2022/06/22 10:57:30;;;;;;;0.40;0.40;;;27.70;50.70;;;;;;5011340;28;20548;-76
2022/06/22 11:00:09;;;;;;;0.30;0.30;;;27.50;50.70;;;;;;5014884;28;20061;-76
2022/06/22 11:03:13;;;;;;;0.30;0.30;;;27.60;50.70;;;;;;4997053;28;20038;-76
2022/06/22 11:06:02;;;;;;;0.55;0.30;;;27.60;50.60;;;;;;5013793;28;20125;-76
2022/06/22 11:08:48;;;;;;;0.30;0.30;;;27.50;50.70;;;;;;5014369;28;20038;-75
2022/06/22 11:11:37;;;;;;;0.30;0.30;;;27.40;50.60;;;;;;5013925;28;20398;-76
2022/06/22 11:14:36;;;;;;;0.30;0.30;;;27.40;50.50;;;;;;5014085;28;20053;-76
2022/06/22 11:17:35;;;;;;;0.40;0.40;;;27.60;50.30;;;;;;5000836;28;20042;-75
2022/06/22 11:20:21;;;;;;;0.57;0.57;;;27.60;50.00;;;;;;4997867;28;20097;-75
2022/06/22 11:22:53;;;;;;;0.30;0.30;;;27.60;49.70;;;;;;5016494;28;20037;-75
2022/06/22 11:32:07;;;;;;;0.65;0.47;;;27.60;49.70;;;;;;5021073;28;20049;-75
2022/06/22 11:34:54;;;;;;;0.50;0.50;;;27.50;49.50;;;;;;4991797;28;20034;-76
2022/06/22 11:37:43;;;;;;;0.68;0.50;;;27.60;49.20;;;;;;5023814;28;20026;-76
2022/06/22 11:40:34;;;;;;;0.60;0.40;;;27.50;49.10;;;;;;5018030;28;20068;-76
2022/06/22 11:43:32;;;;;;;0.40;0.40;;;27.50;49.10;;;;;;5017529;28;20046;-76
2022/06/22 11:46:34;;;;;;;0.68;0.40;;;27.50;49.00;;;;;;5004939;28;20048;-77
2022/06/22 11:49:20;;;;;;;2.40;0.30;;;27.40;48.80;;;;;;5019225;28;20083;-75
2022/06/22 11:52:17;;;;;;;0.30;0.30;;;27.40;48.80;;;;;;5013244;28;20512;-77
2022/06/22 11:54:55;;;;;;;1.75;0.30;;;27.40;48.90;;;;;;5014525;28;20053;-77
2022/06/22 11:57:47;;;;;;;0.30;0.30;;;27.40;48.70;;;;;;5013392;28;20078;-77
2022/06/22 12:00:31;;;;;;;0.77;0.60;;;27.50;48.70;;;;;;5015088;28;21203;-77
2022/06/22 12:03:15;;;;;;;0.40;0.40;;;27.50;48.50;;;;;;5015425;28;20042;-77
2022/06/22 12:06:15;;;;;;;0.40;0.40;;;27.40;48.30;;;;;;5013503;28;20486;-78
2022/06/22 12:08:56;;;;;;;;;;;27.40;48.20;;;;;;5014488;28;20084;-76
2022/06/22 12:11:48;;;;;;;0.30;0.30;;;27.30;48.50;;;;;;5013415;28;19920;-77
2022/06/22 12:17:39;;;;;;;0.20;0.20;;;27.20;48.40;;;;;;5012491;28;20045;-76
2022/06/22 12:20:37;;;;;;;0.30;0.30;;;27.30;48.30;;;;;;4995039;28;20042;-76
2022/06/22 12:23:37;;;;;;;0.47;0.47;;;27.40;48.10;;;;;;4997374;28;20474;-76
2022/06/22 12:26:24;;;;;;;0.30;0.30;;;27.40;48.00;;;;;;5011859;28;20057;-76
2022/06/22 12:29:14;;;;;;;0.30;0.30;;;27.40;47.90;;;;;;5011869;28;20030;-76
2022/06/22 12:31:47;;;;;;;0.40;0.40;;;27.40;47.90;;;;;;4994569;28;20093;-76
2022/06/22 12:34:25;;;;;;;0.32;0.28;;;27.30;47.70;;;;;;4994814;28;20096;-76
2022/06/22 12:36:58;;;;;;;0.52;0.47;;;27.30;47.80;;;;;;5011827;28;20049;-76
2022/06/22 12:39:35;;;;;;;0.50;0.50;;;27.30;47.90;;;;;;5011870;28;20153;-75
2022/06/22 12:42:29;;;;;;;0.30;0.30;;;27.30;48.00;;;;;;5011713;28;20042;-76
2022/06/22 12:45:15;;;;;;;0.30;0.30;;;27.30;47.90;;;;;;4996443;28;20084;-76
2022/06/22 12:48:10;;;;;;;0.30;0.30;;;27.40;47.90;;;;;;4992787;28;20070;-76
2022/06/22 12:50:54;;;;;;;0.30;0.30;;;27.30;47.80;;;;;;4996517;28;20544;-76
2022/06/22 12:53:47;;;;;;;0.68;0.30;;;27.30;47.60;;;;;;5012740;28;21133;-76
2022/06/22 12:56:23;;;;;;;0.40;0.40;;;27.30;47.60;;;;;;4994723;28;20053;-76
2022/06/22 12:59:02;;;;;;;0.30;0.30;;;27.30;47.60;;;;;;4997158;28;20057;-77
2022/06/22 13:01:28;;;;;;;0.10;0.10;;;27.30;47.60;;;;;;5015070;28;20049;-76
2022/06/22 13:03:58;;;;;;;0.30;0.30;;;27.30;47.60;;;;;;5015622;28;20133;-76
2022/06/22 13:06:27;;;;;;;0.30;0.30;;;27.30;47.50;;;;;;4997299;28;20042;-76
2022/06/22 13:08:55;;;;;;;0.30;0.30;;;27.30;47.30;;;;;;4997866;28;20536;-76
2022/06/22 13:11:24;;;;;;;0.40;0.40;;;27.30;47.20;;;;;;5014946;28;20948;-76
2022/06/22 13:14:18;;;;;;;0.40;0.40;;;27.10;47.00;;;;;;4996670;28;20049;-77
2022/06/22 13:17:00;;;;;;;0.40;0.40;;;27.00;46.90;;;;;;4997637;28;20041;-76
2022/06/22 13:19:58;;;;;;;0.45;0.35;;;26.90;47.10;;;;;;4997451;28;20038;-76
2022/06/22 13:22:39;;;;;;;0.82;0.45;;;26.80;47.00;;;;;;5014933;28;20038;-76
2022/06/22 13:25:32;;;;;;;0.30;0.30;;;26.70;47.00;;;;;;5015066;28;20046;-76
2022/06/22 13:28:08;;;;;;;0.30;0.30;;;26.70;46.80;;;;;;5014991;28;20042;-76
2022/06/22 13:30:43;;;;;;;0.32;0.30;;;26.60;46.60;;;;;;5014571;28;20038;-76
2022/06/22 13:33:19;;;;;;;0.30;0.30;;;26.80;46.60;;;;;;5014425;28;20042;-75
2022/06/22 13:35:59;;;;;;;0.40;0.40;;;26.80;46.50;;;;;;4995434;28;20494;-76
2022/06/22 13:39:03;;;;;;;0.30;0.30;;;26.70;46.30;;;;;;5014400;28;20045;-75
2022/06/22 13:42:04;;;;;;;0.70;0.40;;;26.60;46.20;;;;;;5012273;28;20038;-76
2022/06/22 13:45:01;;;;;;;0.40;0.40;;;26.50;46.30;;;;;;4982966;28;20042;-76
2022/06/22 13:47:58;;;;;;;0.47;0.47;;;26.40;46.30;;;;;;4999453;28;20042;-76
2022/06/22 13:54:04;;;;;;;0.30;0.30;;;26.50;46.00;;;;;;4985875;28;20049;-76
2022/06/22 13:56:50;;;;;;;0.20;0.20;;;26.40;45.90;;;;;;4996729;28;20042;-75
2022/06/22 13:59:27;;;;;;;0.30;0.30;;;26.50;46.00;;;;;;4996504;28;20379;-75
2022/06/22 14:02:06;;;;;;;0.30;0.30;;;26.50;45.90;;;;;;5013938;28;20034;-76
2022/06/22 14:04:40;;;;;;;0.40;0.30;;;26.50;45.80;;;;;;5013492;28;20489;-75
2022/06/22 14:07:16;;;;;;;0.40;0.40;;;26.40;45.60;;;;;;5013827;28;20394;-75
2022/06/22 14:09:53;;;;;;;0.22;0.22;;;26.40;45.60;;;;;;4996016;28;20053;-75
2022/06/22 14:12:26;;;;;;;0.30;0.30;;;26.40;45.50;;;;;;5014036;28;20100;-76
2022/06/22 14:15:20;;;;;;;0.30;0.30;;;26.30;45.40;;;;;;5014442;28;20046;-78
2022/06/22 14:18:00;;;;;;;0.32;0.30;;;26.40;45.30;;;;;;4997359;28;20096;-75
2022/06/22 14:20:36;;;;;;;0.30;0.30;;;26.40;45.20;;;;;;5014418;28;20054;-75
2022/06/22 14:23:06;;;;;;;0.30;0.30;;;26.40;45.10;;;;;;5019017;28;20046;-75
2022/06/22 14:25:48;;;;;;;0.30;0.30;;;26.50;45.10;;;;;;5013556;28;20042;-75
2022/06/22 14:28:32;;;;;;;0.30;0.30;;;26.50;45.00;;;;;;5013611;28;20042;-75
2022/06/22 14:31:12;;;;;;;0.20;0.20;;;26.50;44.90;;;;;;5013898;28;20117;-75